createdAt,value
2019-01-23T00:00:36.480Z,5.22
2019-01-23T00:03:03.368Z,5.30
2019-01-23T00:05:30.007Z,5.05
2019-01-23T00:07:56.676Z,4.81
2019-01-23T00:10:23.355Z,4.58
2019-01-23T00:12:49.997Z,4.58
2019-01-23T00:15:16.940Z,4.67
2019-01-23T00:17:44.814Z,4.73
2019-01-23T00:20:11.439Z,4.87
2019-01-23T00:22:38.293Z,4.87
2019-01-23T00:25:05.022Z,5.08
2019-01-23T00:27:31.630Z,5.10
2019-01-23T00:29:58.568Z,5.09
2019-01-23T00:32:25.413Z,4.84
2019-01-23T00:34:52.005Z,4.62
2019-01-23T00:37:18.931Z,4.53
2019-01-23T00:39:46.383Z,4.53
2019-01-23T00:42:13.184Z,4.44
2019-01-23T00:44:39.853Z,4.29
2019-01-23T00:47:06.583Z,4.28
2019-01-23T00:49:33.471Z,4.24
2019-01-23T00:52:00.206Z,4.20
2019-01-23T00:54:26.815Z,4.18
2019-01-23T00:56:53.418Z,4.14
2019-01-23T00:59:20.053Z,4.14
2019-01-23T01:01:46.692Z,4.23
2019-01-23T01:04:13.302Z,4.26
2019-01-23T01:06:41.193Z,4.25
2019-01-23T01:09:08.021Z,4.17
2019-01-23T01:11:34.975Z,4.32
2019-01-23T01:14:01.564Z,4.38
2019-01-23T01:16:28.311Z,4.34
2019-01-23T01:18:54.973Z,4.14
2019-01-23T01:21:21.947Z,4.15
2019-01-23T01:23:49.460Z,4.20
2019-01-23T01:26:20.776Z,4.36
2019-01-23T01:28:55.816Z,4.50
2019-01-23T01:31:19.869Z,4.60
2019-01-23T01:36:34.385Z,4.66
2019-01-23T01:39:03.099Z,4.38
2019-01-23T01:41:30.458Z,4.30
2019-01-23T01:43:59.042Z,4.44
2019-01-23T01:46:25.751Z,4.37
2019-01-23T01:48:53.289Z,4.43
2019-01-23T01:51:20.034Z,4.58
2019-01-23T01:53:46.958Z,4.51
2019-01-23T01:56:15.862Z,4.64
2019-01-23T01:58:44.106Z,4.55
2019-01-23T02:01:10.735Z,4.56
2019-01-23T02:03:40.394Z,4.64
2019-01-23T02:06:11.126Z,4.75
2019-01-23T02:08:39.421Z,4.76
2019-01-23T02:11:06.975Z,4.71
2019-01-23T02:13:34.622Z,4.63
2019-01-23T02:16:01.636Z,4.62
2019-01-23T02:18:28.244Z,4.57
2019-01-23T02:20:55.145Z,4.59
2019-01-23T02:23:22.494Z,4.70
2019-01-23T02:25:49.507Z,4.46
2019-01-23T02:28:16.118Z,4.39
2019-01-23T02:30:42.926Z,4.67
2019-01-23T02:33:12.511Z,4.61
2019-01-23T02:35:40.159Z,4.36
2019-01-23T02:38:08.678Z,4.39
2019-01-23T02:40:37.481Z,4.47
2019-01-23T02:43:04.177Z,4.47
2019-01-23T02:45:33.400Z,4.63
2019-01-23T02:48:00.359Z,4.63
2019-01-23T02:50:27.045Z,4.24
2019-01-23T02:52:58.508Z,4.07
2019-01-23T02:55:27.137Z,4.11
2019-01-23T02:57:55.229Z,3.97
2019-01-23T03:00:22.293Z,4.09
2019-01-23T03:02:49.315Z,4.17
2019-01-23T03:05:17.185Z,4.29
2019-01-23T03:07:46.511Z,4.27
2019-01-23T03:10:13.465Z,4.29
2019-01-23T03:12:41.387Z,4.19
2019-01-23T03:15:08.209Z,4.16
2019-01-23T03:17:36.570Z,4.23
2019-01-23T03:20:04.294Z,4.11
2019-01-23T03:22:33.764Z,4.13
2019-01-23T03:25:01.410Z,4.17
2019-01-23T03:27:34.644Z,4.28
2019-01-23T03:30:05.053Z,4.16
2019-01-23T03:32:32.741Z,4.26
2019-01-23T03:35:00.407Z,4.19
2019-01-23T03:37:35.266Z,4.08
2019-01-23T03:40:03.818Z,4.09
2019-01-23T03:42:33.750Z,4.02
2019-01-23T03:45:00.895Z,3.91
2019-01-23T03:47:28.891Z,3.88
2019-01-23T03:49:57.800Z,3.93
2019-01-23T03:52:28.004Z,3.88
2019-01-23T03:54:55.695Z,3.78
2019-01-23T03:57:28.670Z,3.86
2019-01-23T03:59:55.738Z,3.83
2019-01-23T04:02:22.613Z,3.91
2019-01-23T04:04:49.569Z,3.85
2019-01-23T04:07:17.236Z,3.86
2019-01-23T04:09:43.899Z,3.79
2019-01-23T04:12:10.714Z,3.26
2019-01-23T04:14:37.729Z,3.18
2019-01-23T04:17:04.916Z,3.30
2019-01-23T04:19:31.878Z,3.51
2019-01-23T04:22:01.219Z,3.60
2019-01-23T04:24:29.213Z,3.45
2019-01-23T04:26:57.100Z,3.49
2019-01-23T04:29:26.656Z,3.30
2019-01-23T04:31:55.568Z,3.32
2019-01-23T04:34:23.397Z,3.46
2019-01-23T04:36:50.136Z,3.63
2019-01-23T04:39:19.213Z,3.82
2019-01-23T04:41:48.422Z,3.86
2019-01-23T04:44:15.700Z,4.00
2019-01-23T04:46:44.471Z,3.93
2019-01-23T04:52:04.756Z,3.99
2019-01-23T04:54:34.604Z,3.83
2019-01-23T04:57:03.149Z,3.75
2019-01-23T04:59:29.857Z,3.76
2019-01-23T05:01:59.853Z,3.72
2019-01-23T05:04:27.540Z,3.74
2019-01-23T05:06:57.570Z,3.88
2019-01-23T05:09:25.708Z,3.93
2019-01-23T05:11:55.664Z,3.90
2019-01-23T05:14:34.411Z,3.88
2019-01-23T05:17:01.124Z,3.90
2019-01-23T05:19:28.045Z,3.79
2019-01-23T05:21:57.368Z,3.81
2019-01-23T05:24:25.049Z,3.78
2019-01-23T05:26:52.916Z,3.95
2019-01-23T05:29:23.551Z,3.99
2019-01-23T05:31:54.481Z,3.75
2019-01-23T05:34:26.361Z,3.78
2019-01-23T05:36:55.617Z,3.80
2019-01-23T05:39:24.010Z,3.81
2019-01-23T05:41:51.690Z,3.53
2019-01-23T05:44:21.303Z,3.71
2019-01-23T05:46:49.619Z,3.72
2019-01-23T05:49:16.311Z,3.66
2019-01-23T05:51:43.114Z,3.92
2019-01-23T05:54:12.562Z,3.80
2019-01-23T05:56:39.227Z,3.59
2019-01-23T05:59:06.144Z,3.59
2019-01-23T06:01:32.789Z,3.70
2019-01-23T06:03:59.507Z,3.76
2019-01-23T06:06:26.340Z,3.55
2019-01-23T06:08:53.239Z,3.51
2019-01-23T06:11:21.583Z,3.54
2019-01-23T06:13:48.857Z,3.59
2019-01-23T06:16:15.528Z,3.57
2019-01-23T06:18:42.421Z,3.57
2019-01-23T06:21:09.617Z,3.69
2019-01-23T06:23:36.567Z,3.86
2019-01-23T06:26:03.479Z,3.83
2019-01-23T06:28:30.095Z,3.79
2019-01-23T06:30:58.985Z,3.71
2019-01-23T06:33:25.679Z,3.70
2019-01-23T06:35:53.840Z,3.79
2019-01-23T06:38:20.959Z,3.84
2019-01-23T06:40:49.198Z,3.86
2019-01-23T06:43:16.190Z,3.88
2019-01-23T06:45:44.485Z,3.78
2019-01-23T06:48:12.301Z,3.73
2019-01-23T06:50:39.792Z,3.74
2019-01-23T06:53:13.817Z,3.76
2019-01-23T06:55:37.051Z,3.80
2019-01-23T06:58:04.327Z,3.80
2019-01-23T07:03:19.599Z,3.85
2019-01-23T07:05:46.225Z,3.99
2019-01-23T07:08:12.843Z,4.07
2019-01-23T07:10:39.433Z,4.00
2019-01-23T07:13:06.404Z,3.87
2019-01-23T07:15:33.320Z,3.99
2019-01-23T07:17:59.947Z,4.06
2019-01-23T07:20:26.590Z,4.03
2019-01-23T07:22:53.443Z,4.07
2019-01-23T07:25:20.452Z,4.02
2019-01-23T07:27:47.060Z,4.12
2019-01-23T07:30:13.678Z,4.10
2019-01-23T07:32:40.559Z,4.04
2019-01-23T07:35:07.189Z,4.00
2019-01-23T07:37:33.816Z,3.88
2019-01-23T07:40:00.736Z,4.05
2019-01-23T07:42:27.739Z,4.06
2019-01-23T07:44:54.764Z,4.09
2019-01-23T07:47:22.120Z,4.31
2019-01-23T07:49:50.123Z,4.28
2019-01-23T07:52:16.861Z,4.14
2019-01-23T07:54:43.771Z,4.12
2019-01-23T07:57:10.441Z,4.29
2019-01-23T07:59:37.063Z,4.29
2019-01-23T08:02:04.629Z,4.33
2019-01-23T08:04:31.230Z,4.41
2019-01-23T08:06:57.949Z,4.66
2019-01-23T08:09:24.576Z,4.70
2019-01-23T08:11:51.243Z,4.86
2019-01-23T08:14:18.021Z,4.84
2019-01-23T08:16:44.640Z,4.94
2019-01-23T08:19:13.046Z,4.93
2019-01-23T08:21:41.986Z,5.05
2019-01-23T08:24:12.336Z,4.94
2019-01-23T08:26:41.271Z,4.90
2019-01-23T08:29:09.644Z,5.20
2019-01-23T08:31:36.282Z,5.17
2019-01-23T08:34:05.476Z,5.14
2019-01-23T08:36:35.955Z,4.90
2019-01-23T08:39:05.260Z,5.05
2019-01-23T08:41:33.296Z,5.09
2019-01-23T08:43:59.955Z,5.11
2019-01-23T08:46:28.927Z,5.16
2019-01-23T08:48:58.268Z,4.81
2019-01-23T08:51:25.053Z,4.94
2019-01-23T08:53:53.689Z,5.18
2019-01-23T08:56:21.027Z,5.02
2019-01-23T08:58:47.707Z,5.04
2019-01-23T09:01:16.840Z,4.96
2019-01-23T09:03:45.761Z,5.14
2019-01-23T09:06:12.348Z,4.98
2019-01-23T09:08:39.787Z,4.82
2019-01-23T09:11:10.831Z,4.98
2019-01-23T09:13:38.783Z,5.22
2019-01-23T09:16:05.878Z,5.27
2019-01-23T09:18:35.266Z,5.27
2019-01-23T09:21:03.069Z,5.21
2019-01-23T09:23:33.117Z,5.52
2019-01-23T09:26:02.359Z,5.87
2019-01-23T09:28:31.531Z,5.92
2019-01-23T09:30:59.174Z,6.04
2019-01-23T09:33:29.034Z,6.43
2019-01-23T09:35:56.399Z,6.26
2019-01-23T09:38:25.569Z,6.22
2019-01-23T09:40:58.625Z,6.00
2019-01-23T09:43:28.434Z,5.67
2019-01-23T09:45:55.541Z,5.31
2019-01-23T09:48:23.626Z,5.33
2019-01-23T09:50:53.777Z,5.53
2019-01-23T09:53:24.805Z,5.63
2019-01-23T09:55:52.479Z,5.76
2019-01-23T09:58:19.080Z,5.75
2019-01-23T10:01:06.738Z,5.79
2019-01-23T10:06:19.669Z,5.49
2019-01-23T10:08:49.396Z,5.63
2019-01-23T10:11:29.316Z,5.72
2019-01-23T10:13:51.309Z,5.71
2019-01-23T10:16:21.747Z,5.81
2019-01-23T10:18:56.042Z,5.71
2019-01-23T10:21:31.108Z,5.71
2019-01-23T10:24:01.477Z,5.75
2019-01-23T10:26:28.121Z,5.84
2019-01-23T10:28:55.256Z,6.12
2019-01-23T10:31:22.413Z,5.96
2019-01-23T10:33:52.060Z,5.85
2019-01-23T10:36:21.263Z,5.81
2019-01-23T10:38:48.379Z,5.63
2019-01-23T10:41:18.759Z,5.76
2019-01-23T10:43:45.385Z,6.03
2019-01-23T10:46:15.037Z,5.71
2019-01-23T10:48:43.982Z,5.91
2019-01-23T10:51:15.001Z,5.97
2019-01-23T10:53:41.674Z,6.23
2019-01-23T10:56:13.184Z,6.59
2019-01-23T10:58:39.578Z,6.60
2019-01-23T11:01:06.212Z,6.35
2019-01-23T11:03:35.372Z,6.28
2019-01-23T11:06:03.562Z,6.18
2019-01-23T11:08:30.464Z,6.06
2019-01-23T11:10:57.878Z,6.33
2019-01-23T11:13:24.887Z,6.33
2019-01-23T11:15:53.621Z,6.28
2019-01-23T11:18:24.753Z,6.69
2019-01-23T11:20:51.635Z,6.57
2019-01-23T11:23:21.314Z,6.34
2019-01-23T11:25:48.996Z,6.19
2019-01-23T11:28:16.815Z,6.10
2019-01-23T11:30:43.767Z,6.00
2019-01-23T11:33:10.675Z,6.06
2019-01-23T11:35:38.476Z,6.33
2019-01-23T11:38:09.897Z,6.25
2019-01-23T11:40:36.880Z,5.95
2019-01-23T11:43:15.921Z,6.15
2019-01-23T11:45:42.874Z,6.47
2019-01-23T11:48:11.288Z,6.46
2019-01-23T11:50:38.088Z,6.38
2019-01-23T11:53:06.988Z,6.20
2019-01-23T11:55:37.061Z,6.22
2019-01-23T11:58:03.775Z,6.05
2019-01-23T12:00:30.437Z,6.07
2019-01-23T12:02:59.681Z,5.92
2019-01-23T12:05:28.750Z,6.06
2019-01-23T12:07:58.696Z,6.35
2019-01-23T12:10:25.557Z,6.21
2019-01-23T12:12:53.095Z,6.40
2019-01-23T12:15:23.526Z,6.47
2019-01-23T12:17:49.905Z,6.74
2019-01-23T12:20:16.539Z,6.87
2019-01-23T12:22:43.500Z,7.18
2019-01-23T12:25:10.158Z,7.03
2019-01-23T12:27:39.795Z,6.98
2019-01-23T12:30:10.138Z,6.94
2019-01-23T12:32:39.050Z,7.01
2019-01-23T12:35:07.868Z,7.08
2019-01-23T12:37:34.763Z,7.05
2019-01-23T12:40:01.672Z,7.17
2019-01-23T12:42:30.674Z,7.24
2019-01-23T12:45:01.906Z,7.22
2019-01-23T12:47:28.822Z,7.46
2019-01-23T12:49:55.497Z,7.35
2019-01-23T12:52:22.098Z,7.25
2019-01-23T12:54:52.802Z,7.03
2019-01-23T12:57:20.382Z,6.95
2019-01-23T12:59:48.236Z,6.92
2019-01-23T13:02:16.994Z,6.65
2019-01-23T13:04:45.410Z,6.41
2019-01-23T13:07:13.722Z,6.48
2019-01-23T13:09:40.115Z,6.70
2019-01-23T13:12:09.259Z,6.72
2019-01-23T13:14:39.652Z,6.77
2019-01-23T13:17:08.268Z,6.78
2019-01-23T13:19:35.510Z,7.01
2019-01-23T13:22:04.293Z,6.94
2019-01-23T13:24:31.268Z,6.98
2019-01-23T13:27:00.472Z,6.58
2019-01-23T13:29:29.090Z,6.73
2019-01-23T13:31:57.255Z,6.71
2019-01-23T13:34:24.963Z,6.80
2019-01-23T13:36:51.557Z,6.73
2019-01-23T13:39:18.492Z,6.67
2019-01-23T13:41:45.978Z,6.75
2019-01-23T13:44:14.483Z,6.48
2019-01-23T13:46:42.304Z,6.45
2019-01-23T13:49:10.036Z,6.44
2019-01-23T13:51:38.027Z,6.66
2019-01-23T13:54:05.642Z,6.62
2019-01-23T13:56:33.198Z,6.71
2019-01-23T13:59:05.914Z,6.62
2019-01-23T14:01:33.825Z,6.65
2019-01-23T14:04:03.513Z,6.71
2019-01-23T14:06:34.783Z,6.31
2019-01-23T14:09:02.930Z,6.33
2019-01-23T14:11:33.163Z,6.38
2019-01-23T14:14:01.103Z,6.42
2019-01-23T14:16:32.365Z,6.49
2019-01-23T14:19:03.606Z,6.39
2019-01-23T14:21:36.241Z,6.33
2019-01-23T14:24:05.165Z,6.26
2019-01-23T14:26:34.360Z,6.41
2019-01-23T14:29:01.218Z,6.48
2019-01-23T14:31:38.536Z,6.34
2019-01-23T14:34:05.927Z,6.28
2019-01-23T14:36:33.639Z,6.25
2019-01-23T14:39:01.729Z,6.10
2019-01-23T14:41:28.343Z,6.11
2019-01-23T14:44:03.175Z,5.81
2019-01-23T14:46:28.230Z,5.79
2019-01-23T14:49:05.981Z,5.82
2019-01-23T14:51:41.320Z,6.00
2019-01-23T14:54:08.727Z,6.17
2019-01-23T14:56:36.443Z,6.07
2019-01-23T15:01:51.208Z,6.18
2019-01-23T15:07:10.627Z,5.97
2019-01-23T15:09:37.848Z,5.93
2019-01-23T15:12:05.940Z,5.87
2019-01-23T15:14:33.754Z,5.66
2019-01-23T15:17:03.061Z,5.81
2019-01-23T15:19:30.680Z,5.80
2019-01-23T15:22:01.586Z,5.74
2019-01-23T15:24:30.962Z,5.58
2019-01-23T15:26:59.080Z,5.35
2019-01-23T15:29:27.339Z,5.18
2019-01-23T15:31:55.499Z,5.41
2019-01-23T15:34:26.647Z,5.19
2019-01-23T15:36:54.545Z,5.05
2019-01-23T15:39:25.637Z,5.27
2019-01-23T15:41:52.682Z,5.25
2019-01-23T15:44:29.603Z,5.33
2019-01-23T15:47:04.106Z,5.28
2019-01-23T15:49:32.543Z,5.13
2019-01-23T15:52:01.688Z,5.25
2019-01-23T15:54:28.834Z,5.24
2019-01-23T15:59:43.525Z,5.11
2019-01-23T16:02:14.250Z,4.91
2019-01-23T16:04:41.888Z,4.93
2019-01-23T16:07:13.330Z,4.99
2019-01-23T16:09:42.046Z,5.18
2019-01-23T16:12:09.450Z,5.27
2019-01-23T16:14:38.954Z,5.15
2019-01-23T16:17:05.800Z,5.09
2019-01-23T16:19:32.832Z,4.97
2019-01-23T16:21:59.685Z,5.11
2019-01-23T16:24:26.377Z,4.83
2019-01-23T16:26:53.062Z,4.85
2019-01-23T16:29:19.834Z,4.74
2019-01-23T16:31:46.499Z,4.80
2019-01-23T16:34:13.136Z,4.88
2019-01-23T16:36:40.026Z,4.99
2019-01-23T16:39:07.003Z,4.89
2019-01-23T16:41:33.892Z,4.80
2019-01-23T16:44:01.403Z,4.82
2019-01-23T16:46:28.142Z,4.97
2019-01-23T16:48:55.537Z,5.13
2019-01-23T16:51:22.180Z,5.05
2019-01-23T16:53:49.096Z,4.84
2019-01-23T16:56:15.698Z,4.97
2019-01-23T16:58:42.323Z,5.00
2019-01-23T17:01:09.577Z,5.25
2019-01-23T17:03:36.363Z,4.95
2019-01-23T17:06:03.279Z,4.90
2019-01-23T17:08:29.950Z,4.98
2019-01-23T17:10:56.878Z,5.07
2019-01-23T17:13:23.491Z,4.93
2019-01-23T17:15:50.479Z,5.02
2019-01-23T17:18:17.377Z,4.94
2019-01-23T17:20:47.545Z,4.97
2019-01-23T17:23:16.412Z,5.21
2019-01-23T17:25:43.018Z,5.07
2019-01-23T17:28:09.619Z,4.91
2019-01-23T17:30:38.865Z,5.07
2019-01-23T17:33:05.665Z,5.30
2019-01-23T17:35:32.528Z,5.30
2019-01-23T17:37:59.547Z,5.31
2019-01-23T17:40:26.287Z,5.11
2019-01-23T17:42:52.895Z,5.08
2019-01-23T17:45:20.473Z,4.89
2019-01-23T17:47:48.122Z,4.81
2019-01-23T17:50:14.890Z,4.97
2019-01-23T17:52:42.094Z,4.89
2019-01-23T17:55:10.174Z,4.99
2019-01-23T17:57:37.985Z,5.14
2019-01-23T18:00:05.242Z,5.08
2019-01-23T18:02:33.255Z,5.13
2019-01-23T18:05:00.229Z,5.04
2019-01-23T18:07:27.160Z,4.92
2019-01-23T18:09:53.790Z,4.92
2019-01-23T18:12:20.397Z,4.72
2019-01-23T18:14:49.126Z,4.63
2019-01-23T18:17:16.529Z,4.55
2019-01-23T18:19:43.484Z,4.53
2019-01-23T18:24:51.838Z,4.54
2019-01-23T18:27:19.501Z,4.43
2019-01-23T18:32:32.853Z,4.58
2019-01-23T18:35:04.575Z,4.52
2019-01-23T18:37:32.268Z,4.54
2019-01-23T18:40:05.050Z,4.50
2019-01-23T18:42:31.981Z,4.68
2019-01-23T18:44:59.378Z,5.00
2019-01-23T18:47:29.915Z,5.10
2019-01-23T18:50:00.370Z,5.02
2019-01-23T18:52:30.360Z,5.08
2019-01-23T18:54:58.784Z,5.15
2019-01-23T18:57:26.647Z,5.14
2019-01-23T18:59:59.318Z,5.31
2019-01-23T19:02:29.802Z,5.24
2019-01-23T19:05:02.745Z,5.28
2019-01-23T19:07:31.685Z,5.14
2019-01-23T19:10:03.421Z,4.99
2019-01-23T19:12:33.232Z,4.84
2019-01-23T19:15:01.782Z,4.87
2019-01-23T19:17:30.591Z,5.05
2019-01-23T19:20:10.954Z,5.13
2019-01-23T19:22:42.008Z,5.05
2019-01-23T19:25:11.086Z,4.96
2019-01-23T19:27:38.969Z,5.02
2019-01-23T19:30:09.313Z,4.97
2019-01-23T19:32:39.517Z,4.91
2019-01-23T19:35:07.152Z,4.77
2019-01-23T19:37:34.217Z,4.70
2019-01-23T19:40:00.955Z,4.62
2019-01-23T19:42:28.813Z,4.76
2019-01-23T19:44:57.408Z,5.02
2019-01-23T19:47:25.343Z,5.04
2019-01-23T19:49:52.380Z,5.11
2019-01-23T19:52:19.641Z,5.16
2019-01-23T19:54:49.939Z,5.25
2019-01-23T19:57:17.727Z,5.30
2019-01-23T19:59:49.694Z,5.02
2019-01-23T20:02:19.873Z,4.73
2019-01-23T20:04:46.495Z,4.92
2019-01-23T20:07:15.365Z,5.06
2019-01-23T20:09:44.100Z,5.20
2019-01-23T20:12:15.683Z,5.32
2019-01-23T20:14:41.638Z,5.20
2019-01-23T20:17:09.770Z,5.25
2019-01-23T20:19:38.968Z,5.20
2019-01-23T20:22:05.794Z,5.10
2019-01-23T20:24:36.612Z,5.05
2019-01-23T20:27:05.524Z,5.14
2019-01-23T20:29:32.642Z,5.13
2019-01-23T20:32:02.916Z,5.01
2019-01-23T20:34:33.129Z,5.10
2019-01-23T20:37:03.764Z,5.25
2019-01-23T20:39:34.810Z,5.33
2019-01-23T20:42:03.360Z,5.34
2019-01-23T20:44:31.861Z,5.24
2019-01-23T20:47:00.832Z,5.15
2019-01-23T20:49:27.677Z,5.01
2019-01-23T20:51:54.414Z,4.85
2019-01-23T20:54:21.369Z,4.83
2019-01-23T20:56:49.927Z,4.79
2019-01-23T20:59:16.582Z,4.91
2019-01-23T21:01:47.217Z,5.03
2019-01-23T21:04:13.888Z,5.14
2019-01-23T21:06:40.871Z,5.06
2019-01-23T21:09:07.592Z,5.10
2019-01-23T21:11:34.686Z,5.10
2019-01-23T21:14:04.536Z,5.01
2019-01-23T21:16:32.060Z,4.90
2019-01-23T21:18:58.694Z,4.82
2019-01-23T21:21:27.921Z,4.87
2019-01-23T21:23:55.139Z,4.90
2019-01-23T21:26:21.766Z,4.99
2019-01-23T21:28:48.965Z,4.93
2019-01-23T21:31:16.606Z,5.02
2019-01-23T21:33:45.530Z,4.97
2019-01-23T21:36:12.868Z,4.79
2019-01-23T21:38:42.171Z,4.60
2019-01-23T21:41:08.897Z,4.65
2019-01-23T21:43:35.980Z,4.81
2019-01-23T21:46:21.548Z,4.85
2019-01-23T21:48:50.292Z,4.70
2019-01-23T22:16:41.542Z,4.29
2019-01-23T22:19:08.246Z,4.17
2019-01-23T22:21:35.479Z,4.24
2019-01-23T22:24:02.424Z,4.52
2019-01-23T22:26:29.296Z,4.60
2019-01-23T22:28:56.221Z,4.49
2019-01-23T22:31:22.965Z,4.39
2019-01-23T22:33:55.925Z,4.31
2019-01-23T22:36:17.953Z,4.18
2019-01-23T22:38:48.482Z,4.12
2019-01-23T22:41:21.994Z,4.16
2019-01-23T22:43:48.907Z,4.36
2019-01-23T22:46:15.633Z,4.32
2019-01-23T22:48:47.449Z,4.27
2019-01-23T22:51:14.484Z,4.24
2019-01-23T22:53:43.391Z,4.17
2019-01-23T22:56:11.015Z,4.11
2019-01-23T22:58:39.810Z,4.06
2019-01-23T23:01:07.160Z,4.01
2019-01-23T23:03:40.341Z,4.18
2019-01-23T23:06:14.056Z,4.43
2019-01-23T23:08:44.727Z,4.62
2019-01-23T23:11:16.046Z,4.61
2019-01-23T23:13:45.392Z,4.39
2019-01-23T23:16:12.122Z,4.37
2019-01-23T23:18:40.028Z,4.54
2019-01-23T23:21:08.715Z,4.62
2019-01-23T23:23:38.029Z,4.53
2019-01-23T23:26:04.665Z,4.45
2019-01-23T23:28:35.714Z,4.60
2019-01-23T23:31:08.837Z,4.78
2019-01-23T23:33:36.499Z,4.80
2019-01-23T23:36:04.175Z,5.05
2019-01-23T23:38:32.917Z,5.09
2019-01-23T23:41:00.558Z,4.81
2019-01-23T23:43:29.598Z,4.71
2019-01-23T23:45:56.614Z,4.61
2019-01-23T23:48:24.511Z,4.68
2019-01-23T23:50:57.629Z,4.85
2019-01-23T23:53:28.272Z,5.00
2019-01-23T23:55:56.419Z,4.93
2019-01-23T23:58:27.919Z,4.94
